PWSweather.com
Personal Weather Stations
Station Observations
WODONGA
Wodonga, WodongaAU 3690

WodongaWodongaAU 3690

Lat: -36.121, Lon: 146.87

Elevation: 541

Station Type: Weather Station

http://www.wodongaweather.net

High Low Average
Temperature 45.9°F7.7°F 36.0°F2.2°F 42.1°F5.6°F
Dew Point 42.9°F6.1°F 34.1°F1.2°F 40.0°F4.4°F
Winds 17.7 mph WNW28.5 mph WNW 0.6 mph 1.0 mph 6.5 mph 10.5 mph
Wind Gusts 24.4 mph39.3 mph 1.6 mph2.6 mph 10.1 mph16.3 mph
Humidity 99% 84% 92%
Pressure 30.04 in1017.30 in 29.58 in1001.70 in -
Precipitation 3.35 in85.10 in - -
Hour Temp Dew Point Humidity Winds Wind Gusts Pressure Precip Precip Rate Daily Precip Total
12:00 AM 43.2°F6.2°C 41.3°F5.2°C 93% 7.7 mph NW12.4 kmh NW 16.8 mph27.0 kmh 29.61 in1002.7 mb 0.11 in2.8 mm 0.00 in0.0 mm 0.11 in2.8 mm
12:05 AM 43.2°F6.2°C 41.6°F5.3°C 94% 6.6 mph NNW10.6 kmh NNW 12.1 mph19.5 kmh 29.61 in1002.7 mb 0.12 in3.0 mm 0.12 in3.0 mm 0.01 in0.3 mm
12:10 AM 43.2°F6.2°C 41.6°F5.3°C 94% 5.6 mph WSW9.0 kmh WSW 9.8 mph15.8 kmh 29.61 in1002.7 mb 0.12 in3.0 mm 0.00 in0.0 mm 0.01 in0.3 mm
12:15 AM 43.3°F6.3°C 41.7°F5.4°C 94% 5.7 mph W9.2 kmh W 9.8 mph15.8 kmh 29.61 in1002.7 mb 0.12 in3.0 mm 0.00 in0.0 mm 0.01 in0.3 mm
12:20 AM 43.3°F6.3°C 41.7°F5.4°C 94% 3.7 mph WNW6.0 kmh WNW 6.9 mph11.1 kmh 29.60 in1002.4 mb 0.12 in3.0 mm 0.00 in0.0 mm 0.01 in0.3 mm
12:25 AM 43.5°F6.4°C 41.9°F5.5°C 94% 2.4 mph NW3.9 kmh NW 5.4 mph8.7 kmh 29.60 in1002.4 mb 0.11 in2.8 mm 0.00 in0.0 mm 0.01 in0.3 mm
12:30 AM 43.5°F6.4°C 41.9°F5.5°C 94% 2.3 mph WNW3.7 kmh WNW 3.8 mph6.1 kmh 29.59 in1002.0 mb 0.08 in2.0 mm 0.00 in0.0 mm 0.01 in0.3 mm
12:35 AM 43.5°F6.4°C 41.9°F5.5°C 94% 2.5 mph NW4.0 kmh NW 4.5 mph7.2 kmh 29.59 in1002.0 mb 0.06 in1.5 mm 0.00 in0.0 mm 0.01 in0.3 mm
12:40 AM 43.5°F6.4°C 41.9°F5.5°C 94% 2.9 mph NW4.7 kmh NW 4.5 mph7.2 kmh 29.60 in1002.4 mb 0.05 in1.3 mm 0.00 in0.0 mm 0.01 in0.3 mm
12:45 AM 43.7°F6.5°C 42.1°F5.6°C 94% 2.9 mph WNW4.7 kmh WNW 4.5 mph7.2 kmh 29.59 in1002.0 mb 0.04 in1.0 mm 0.00 in0.0 mm 0.01 in0.3 mm
12:50 AM 43.9°F6.6°C 42.3°F5.7°C 94% 1.9 mph W3.1 kmh W 4.5 mph7.2 kmh 29.59 in1002.0 mb 0.04 in1.0 mm 0.00 in0.0 mm 0.01 in0.3 mm
12:55 AM 44.1°F6.7°C 42.4°F5.8°C 94% 1.7 mph SW2.7 kmh SW 3.1 mph5.0 kmh 29.59 in1002.0 mb 0.02 in0.5 mm 0.00 in0.0 mm 0.01 in0.3 mm
01:00 AM 43.7°F6.5°C 42.1°F5.6°C 94% 1.6 mph ESE2.6 kmh ESE 3.1 mph5.0 kmh 29.60 in1002.4 mb 0.01 in0.3 mm 0.00 in0.0 mm 0.01 in0.3 mm
01:05 AM 43.5°F6.4°C 42.2°F5.7°C 95% 1.6 mph N2.6 kmh N 4.5 mph7.2 kmh 29.60 in1002.4 mb 0.00 in0.0 mm 0.00 in0.0 mm 0.01 in0.3 mm
01:10 AM 43.5°F6.4°C 42.2°F5.7°C 95% 2.4 mph N3.9 kmh N 4.5 mph7.2 kmh 29.59 in1002.0 mb 0.00 in0.0 mm 0.00 in0.0 mm 0.01 in0.3 mm
01:15 AM 43.3°F6.3°C 42.0°F5.6°C 95% 1.9 mph N3.1 kmh N 4.5 mph7.2 kmh 29.59 in1002.0 mb 0.00 in0.0 mm 0.00 in0.0 mm 0.01 in0.3 mm
01:20 AM 43.5°F6.4°C 42.2°F5.7°C 95% 1.5 mph NE2.4 kmh NE 3.1 mph5.0 kmh 29.58 in1001.7 mb 0.00 in0.0 mm 0.00 in0.0 mm 0.01 in0.3 mm
01:25 AM 43.5°F6.4°C 42.5°F5.8°C 96% 2.3 mph NNE3.7 kmh NNE 3.1 mph5.0 kmh 29.59 in1002.0 mb 0.00 in0.0 mm 0.00 in0.0 mm 0.01 in0.3 mm
01:30 AM 43.2°F6.2°C 41.8°F5.4°C 95% 2.7 mph N4.3 kmh N 3.8 mph6.1 kmh 29.59 in1002.0 mb 0.00 in0.0 mm 0.00 in0.0 mm 0.01 in0.3 mm
01:35 AM 43.3°F6.3°C 42.3°F5.7°C 96% 2.5 mph NNE4.0 kmh NNE 3.8 mph6.1 kmh 29.58 in1001.7 mb 0.00 in0.0 mm 0.00 in0.0 mm 0.01 in0.3 mm
01:40 AM 43.3°F6.3°C 42.3°F5.7°C 96% 2.1 mph NE3.4 kmh NE 3.8 mph6.1 kmh 29.58 in1001.7 mb 0.00 in0.0 mm 0.00 in0.0 mm 0.01 in0.3 mm
01:45 AM 43.5°F6.4°C 42.5°F5.8°C 96% 1.5 mph ENE2.4 kmh ENE 3.8 mph6.1 kmh 29.59 in1002.0 mb 0.00 in0.0 mm 0.00 in0.0 mm 0.01 in0.3 mm
01:50 AM 43.7°F6.5°C 42.6°F5.9°C 96% 1.1 mph SW1.8 kmh SW 1.6 mph2.6 kmh 29.59 in1002.0 mb 0.00 in0.0 mm 0.00 in0.0 mm 0.01 in0.3 mm
01:55 AM 43.3°F6.3°C 42.3°F5.7°C 96% 1.5 mph WNW2.4 kmh WNW 2.2 mph3.5 kmh 29.59 in1002.0 mb 0.01 in0.3 mm 0.12 in3.0 mm 0.02 in0.5 mm
02:00 AM 43.2°F6.2°C 42.1°F5.6°C 96% 2.5 mph NNW4.0 kmh NNW 3.8 mph6.1 kmh 29.60 in1002.4 mb 0.01 in0.3 mm 0.00 in0.0 mm 0.02 in0.5 mm
02:05 AM 43.2°F6.2°C 42.1°F5.6°C 96% 3.0 mph NNW4.8 kmh NNW 3.8 mph6.1 kmh 29.60 in1002.4 mb 0.01 in0.3 mm 0.00 in0.0 mm 0.02 in0.5 mm
02:10 AM 43.3°F6.3°C 42.5°F5.8°C 97% 2.0 mph WNW3.2 kmh WNW 3.8 mph6.1 kmh 29.60 in1002.4 mb 0.01 in0.3 mm 0.00 in0.0 mm 0.02 in0.5 mm
02:15 AM 43.5°F6.4°C 42.7°F5.9°C 97% 1.9 mph WSW3.1 kmh WSW 3.1 mph5.0 kmh 29.61 in1002.7 mb 0.01 in0.3 mm 0.00 in0.0 mm 0.02 in0.5 mm
02:20 AM 43.5°F6.4°C 42.5°F5.8°C 96% 2.7 mph W4.3 kmh W 3.8 mph6.1 kmh 29.60 in1002.4 mb 0.01 in0.3 mm 0.00 in0.0 mm 0.02 in0.5 mm
02:25 AM 43.5°F6.4°C 42.5°F5.8°C 96% 2.8 mph WNW4.5 kmh WNW 3.8 mph6.1 kmh 29.60 in1002.4 mb 0.01 in0.3 mm 0.00 in0.0 mm 0.02 in0.5 mm
02:30 AM 43.3°F6.3°C 42.3°F5.7°C 96% 2.5 mph WNW4.0 kmh WNW 3.1 mph5.0 kmh 29.61 in1002.7 mb 0.01 in0.3 mm 0.00 in0.0 mm 0.02 in0.5 mm
02:35 AM 43.3°F6.3°C 42.3°F5.7°C 96% 2.4 mph WNW3.9 kmh WNW 3.1 mph5.0 kmh 29.61 in1002.7 mb 0.01 in0.3 mm 0.00 in0.0 mm 0.02 in0.5 mm
02:40 AM 43.3°F6.3°C 42.5°F5.8°C 97% 2.5 mph WNW4.0 kmh WNW 3.8 mph6.1 kmh 29.61 in1002.7 mb 0.01 in0.3 mm 0.00 in0.0 mm 0.02 in0.5 mm
02:45 AM 43.3°F6.3°C 42.3°F5.7°C 96% 2.4 mph WNW3.9 kmh WNW 3.8 mph6.1 kmh 29.61 in1002.7 mb 0.01 in0.3 mm 0.00 in0.0 mm 0.02 in0.5 mm
02:50 AM 43.2°F6.2°C 42.1°F5.6°C 96% 1.8 mph NW2.9 kmh NW 3.1 mph5.0 kmh 29.61 in1002.7 mb 0.01 in0.3 mm 0.00 in0.0 mm 0.02 in0.5 mm
02:55 AM 43.3°F6.3°C 42.5°F5.8°C 97% 1.3 mph NW2.1 kmh NW 2.2 mph3.5 kmh 29.61 in1002.7 mb 0.00 in0.0 mm 0.00 in0.0 mm 0.02 in0.5 mm
03:00 AM 43.2°F6.2°C 42.4°F5.8°C 97% 1.5 mph NW2.4 kmh NW 2.2 mph3.5 kmh 29.61 in1002.7 mb 0.00 in0.0 mm 0.00 in0.0 mm 0.02 in0.5 mm
03:05 AM 43.2°F6.2°C 42.1°F5.6°C 96% 2.0 mph NW3.2 kmh NW 3.1 mph5.0 kmh 29.61 in1002.7 mb 0.00 in0.0 mm 0.00 in0.0 mm 0.02 in0.5 mm
03:10 AM 43.2°F6.2°C 42.1°F5.6°C 96% 1.4 mph NW2.3 kmh NW 3.1 mph5.0 kmh 29.61 in1002.7 mb 0.00 in0.0 mm 0.00 in0.0 mm 0.02 in0.5 mm
03:15 AM 43.2°F6.2°C 42.1°F5.6°C 96% 1.1 mph NW1.8 kmh NW 2.2 mph3.5 kmh 29.61 in1002.7 mb 0.00 in0.0 mm 0.00 in0.0 mm 0.02 in0.5 mm
03:20 AM 43.2°F6.2°C 42.4°F5.8°C 97% 1.9 mph NW3.1 kmh NW 3.1 mph5.0 kmh 29.61 in1002.7 mb 0.00 in0.0 mm 0.00 in0.0 mm 0.02 in0.5 mm
03:25 AM 43.2°F6.2°C 42.4°F5.8°C 97% 2.6 mph NW4.2 kmh NW 3.1 mph5.0 kmh 29.60 in1002.4 mb 0.00 in0.0 mm 0.00 in0.0 mm 0.02 in0.5 mm
03:30 AM 43.2°F6.2°C 42.4°F5.8°C 97% 2.8 mph NW4.5 kmh NW 3.8 mph6.1 kmh 29.61 in1002.7 mb 0.00 in0.0 mm 0.00 in0.0 mm 0.02 in0.5 mm
03:35 AM 43.0°F6.1°C 42.2°F5.7°C 97% 2.7 mph NW4.3 kmh NW 3.8 mph6.1 kmh 29.61 in1002.7 mb 0.00 in0.0 mm 0.00 in0.0 mm 0.02 in0.5 mm
03:40 AM 43.0°F6.1°C 42.2°F5.7°C 97% 2.5 mph NW4.0 kmh NW 3.1 mph5.0 kmh 29.61 in1002.7 mb 0.00 in0.0 mm 0.00 in0.0 mm 0.02 in0.5 mm
03:45 AM 43.0°F6.1°C 42.2°F5.7°C 97% 2.3 mph NW3.7 kmh NW 3.8 mph6.1 kmh 29.61 in1002.7 mb 0.00 in0.0 mm 0.00 in0.0 mm 0.02 in0.5 mm
03:50 AM 43.0°F6.1°C 42.2°F5.7°C 97% 2.7 mph NNW4.3 kmh NNW 4.5 mph7.2 kmh 29.61 in1002.7 mb 0.00 in0.0 mm 0.00 in0.0 mm 0.02 in0.5 mm
03:55 AM 42.8°F6.0°C 42.3°F5.7°C 98% 3.5 mph NW5.6 kmh NW 4.5 mph7.2 kmh 29.61 in1002.7 mb 0.00 in0.0 mm 0.00 in0.0 mm 0.02 in0.5 mm
04:00 AM 42.8°F6.0°C 42.3°F5.7°C 98% 3.7 mph NW6.0 kmh NW 4.5 mph7.2 kmh 29.61 in1002.7 mb 0.00 in0.0 mm 0.00 in0.0 mm 0.02 in0.5 mm
04:05 AM 42.6°F5.9°C 42.1°F5.6°C 98% 3.5 mph NW5.6 kmh NW 4.5 mph7.2 kmh 29.61 in1002.7 mb 0.00 in0.0 mm 0.00 in0.0 mm 0.02 in0.5 mm
04:10 AM 42.8°F6.0°C 42.3°F5.7°C 98% 3.9 mph NW6.3 kmh NW 5.4 mph8.7 kmh 29.61 in1002.7 mb 0.00 in0.0 mm 0.00 in0.0 mm 0.02 in0.5 mm
04:15 AM 42.8°F6.0°C 42.3°F5.7°C 98% 4.2 mph NW6.8 kmh NW 5.4 mph8.7 kmh 29.61 in1002.7 mb 0.00 in0.0 mm 0.00 in0.0 mm 0.02 in0.5 mm
04:20 AM 42.8°F6.0°C 42.5°F5.8°C 99% 3.8 mph NW6.1 kmh NW 5.4 mph8.7 kmh 29.61 in1002.7 mb 0.00 in0.0 mm 0.00 in0.0 mm 0.02 in0.5 mm
04:25 AM 42.6°F5.9°C 42.4°F5.8°C 99% 4.3 mph NW6.9 kmh NW 6.9 mph11.1 kmh 29.60 in1002.4 mb 0.00 in0.0 mm 0.00 in0.0 mm 0.02 in0.5 mm
04:30 AM 42.8°F6.0°C 42.5°F5.8°C 99% 4.5 mph NW7.2 kmh NW 6.9 mph11.1 kmh 29.60 in1002.4 mb 0.00 in0.0 mm 0.00 in0.0 mm 0.02 in0.5 mm
04:35 AM 42.8°F6.0°C 42.5°F5.8°C 99% 3.9 mph NW6.3 kmh NW 4.5 mph7.2 kmh 29.61 in1002.7 mb 0.00 in0.0 mm 0.00 in0.0 mm 0.02 in0.5 mm
04:40 AM 42.8°F6.0°C 42.5°F5.8°C 99% 4.0 mph NW6.4 kmh NW 5.4 mph8.7 kmh 29.60 in1002.4 mb 0.00 in0.0 mm 0.00 in0.0 mm 0.02 in0.5 mm
04:45 AM 42.8°F6.0°C 42.5°F5.8°C 99% 4.6 mph NW7.4 kmh NW 5.4 mph8.7 kmh 29.60 in1002.4 mb 0.00 in0.0 mm 0.00 in0.0 mm 0.02 in0.5 mm
04:50 AM 43.0°F6.1°C 42.7°F5.9°C 99% 3.9 mph NW6.3 kmh NW 5.4 mph8.7 kmh 29.60 in1002.4 mb 0.01 in0.3 mm 0.12 in3.0 mm 0.04 in1.0 mm
04:55 AM 43.0°F6.1°C 42.7°F5.9°C 99% 3.2 mph NW5.1 kmh NW 5.4 mph8.7 kmh 29.60 in1002.4 mb 0.01 in0.3 mm 0.00 in0.0 mm 0.04 in1.0 mm
05:00 AM 42.8°F6.0°C 42.5°F5.8°C 99% 5.0 mph NW8.0 kmh NW 9.2 mph14.8 kmh 29.60 in1002.4 mb 0.01 in0.3 mm 0.00 in0.0 mm 0.04 in1.0 mm
05:05 AM 42.8°F6.0°C 42.5°F5.8°C 99% 6.0 mph NW9.7 kmh NW 9.2 mph14.8 kmh 29.60 in1002.4 mb 0.01 in0.3 mm 0.00 in0.0 mm 0.04 in1.0 mm
05:10 AM 43.0°F6.1°C 42.7°F5.9°C 99% 5.6 mph WNW9.0 kmh WNW 9.2 mph14.8 kmh 29.60 in1002.4 mb 0.01 in0.3 mm 0.00 in0.0 mm 0.04 in1.0 mm
05:15 AM 43.0°F6.1°C 42.7°F5.9°C 99% 5.3 mph WNW8.5 kmh WNW 9.2 mph14.8 kmh 29.60 in1002.4 mb 0.02 in0.5 mm 0.12 in3.0 mm 0.05 in1.3 mm
05:20 AM 43.0°F6.1°C 42.7°F5.9°C 99% 5.3 mph NW8.5 kmh NW 8.3 mph13.4 kmh 29.60 in1002.4 mb 0.02 in0.5 mm 0.00 in0.0 mm 0.05 in1.3 mm
05:25 AM 42.8°F6.0°C 42.5°F5.8°C 99% 6.3 mph NW10.1 kmh NW 9.8 mph15.8 kmh 29.60 in1002.4 mb 0.04 in1.0 mm 0.24 in6.1 mm 0.06 in1.5 mm
05:30 AM 42.8°F6.0°C 42.5°F5.8°C 99% 6.6 mph NW10.6 kmh NW 9.8 mph15.8 kmh 29.60 in1002.4 mb 0.04 in1.0 mm 0.00 in0.0 mm 0.06 in1.5 mm
05:35 AM 43.0°F6.1°C 42.7°F5.9°C 99% 6.7 mph NW10.8 kmh NW 9.8 mph15.8 kmh 29.60 in1002.4 mb 0.04 in1.0 mm 0.00 in0.0 mm 0.06 in1.5 mm
05:40 AM 43.2°F6.2°C 42.9°F6.1°C 99% 5.3 mph WNW8.5 kmh WNW 9.8 mph15.8 kmh 29.60 in1002.4 mb 0.05 in1.3 mm 0.12 in3.0 mm 0.07 in1.8 mm
05:45 AM 43.0°F6.1°C 42.7°F5.9°C 99% 4.6 mph NW7.4 kmh NW 8.3 mph13.4 kmh 29.60 in1002.4 mb 0.05 in1.3 mm 0.00 in0.0 mm 0.08 in2.0 mm
05:50 AM 43.0°F6.1°C 42.7°F5.9°C 99% 7.2 mph NW11.6 kmh NW 11.4 mph18.3 kmh 29.60 in1002.4 mb 0.05 in1.3 mm 0.00 in0.0 mm 0.08 in2.0 mm
05:55 AM 42.8°F6.0°C 42.5°F5.8°C 99% 7.3 mph WNW11.7 kmh WNW 14.5 mph23.3 kmh 29.61 in1002.7 mb 0.07 in1.8 mm 0.24 in6.1 mm 0.11 in2.8 mm
06:00 AM 43.0°F6.1°C 42.7°F5.9°C 99% 4.9 mph W7.9 kmh W 14.5 mph23.3 kmh 29.60 in1002.4 mb 0.07 in1.8 mm 0.00 in0.0 mm 0.11 in2.8 mm
06:05 AM 43.0°F6.1°C 42.7°F5.9°C 99% 5.2 mph WNW8.4 kmh WNW 9.8 mph15.8 kmh 29.60 in1002.4 mb 0.07 in1.8 mm 0.00 in0.0 mm 0.11 in2.8 mm
06:10 AM 43.0°F6.1°C 42.7°F5.9°C 99% 5.4 mph W8.7 kmh W 9.8 mph15.8 kmh 29.60 in1002.4 mb 0.08 in2.0 mm 0.12 in3.0 mm 0.12 in3.0 mm
06:15 AM 43.0°F6.1°C 42.7°F5.9°C 99% 4.6 mph W7.4 kmh W 6.0 mph9.7 kmh 29.61 in1002.7 mb 0.07 in1.8 mm 0.00 in0.0 mm 0.12 in3.0 mm
06:20 AM 43.0°F6.1°C 42.7°F5.9°C 99% 5.0 mph W8.0 kmh W 6.9 mph11.1 kmh 29.60 in1002.4 mb 0.07 in1.8 mm 0.00 in0.0 mm 0.12 in3.0 mm
06:25 AM 43.0°F6.1°C 42.7°F5.9°C 99% 5.4 mph WNW8.7 kmh WNW 7.6 mph12.2 kmh 29.61 in1002.7 mb 0.06 in1.5 mm 0.00 in0.0 mm 0.12 in3.0 mm
06:30 AM 43.2°F6.2°C 42.9°F6.1°C 99% 5.9 mph NW9.5 kmh NW 8.3 mph13.4 kmh 29.61 in1002.7 mb 0.06 in1.5 mm 0.00 in0.0 mm 0.12 in3.0 mm
06:35 AM 43.2°F6.2°C 42.9°F6.1°C 99% 7.9 mph NW12.7 kmh NW 10.7 mph17.2 kmh 29.61 in1002.7 mb 0.06 in1.5 mm 0.00 in0.0 mm 0.12 in3.0 mm
06:40 AM 43.0°F6.1°C 42.7°F5.9°C 99% 8.7 mph NW14.0 kmh NW 10.7 mph17.2 kmh 29.61 in1002.7 mb 0.04 in1.0 mm 0.00 in0.0 mm 0.12 in3.0 mm
06:45 AM 43.0°F6.1°C 42.7°F5.9°C 99% 8.0 mph NW12.9 kmh NW 12.1 mph19.5 kmh 29.61 in1002.7 mb 0.04 in1.0 mm 0.00 in0.0 mm 0.12 in3.0 mm
06:50 AM 43.0°F6.1°C 42.7°F5.9°C 99% 8.6 mph NW13.8 kmh NW 12.1 mph19.5 kmh 29.61 in1002.7 mb 0.04 in1.0 mm 0.00 in0.0 mm 0.12 in3.0 mm
06:55 AM 43.0°F6.1°C 42.7°F5.9°C 99% 7.8 mph NW12.6 kmh NW 12.1 mph19.5 kmh 29.61 in1002.7 mb 0.01 in0.3 mm 0.00 in0.0 mm 0.12 in3.0 mm
07:00 AM 42.8°F6.0°C 42.3°F5.7°C 98% 6.5 mph NW10.5 kmh NW 9.2 mph14.8 kmh 29.62 in1003.0 mb 0.02 in0.5 mm 0.01 in0.3 mm 0.13 in3.3 mm
07:05 AM 43.0°F6.1°C 42.7°F5.9°C 99% 8.0 mph WNW12.9 kmh WNW 10.7 mph17.2 kmh 29.62 in1003.0 mb 0.02 in0.5 mm 0.00 in0.0 mm 0.13 in3.3 mm
07:10 AM 43.0°F6.1°C 42.5°F5.8°C 98% 8.7 mph NW14.0 kmh NW 12.1 mph19.5 kmh 29.62 in1003.0 mb 0.01 in0.3 mm 0.00 in0.0 mm 0.13 in3.3 mm
07:15 AM 42.8°F6.0°C 42.5°F5.8°C 99% 9.6 mph NW15.4 kmh NW 13.0 mph20.9 kmh 29.62 in1003.0 mb 0.01 in0.3 mm 0.00 in0.0 mm 0.13 in3.3 mm
07:20 AM 42.8°F6.0°C 42.5°F5.8°C 99% 11.0 mph NW17.7 kmh NW 13.6 mph21.9 kmh 29.62 in1003.0 mb 0.01 in0.3 mm 0.00 in0.0 mm 0.13 in3.3 mm
07:25 AM 42.6°F5.9°C 42.4°F5.8°C 99% 11.2 mph NW18.0 kmh NW 15.9 mph25.6 kmh 29.62 in1003.0 mb 0.01 in0.3 mm 0.00 in0.0 mm 0.13 in3.3 mm
07:30 AM 42.6°F5.9°C 42.4°F5.8°C 99% 9.9 mph NW15.9 kmh NW 15.9 mph25.6 kmh 29.62 in1003.0 mb 0.01 in0.3 mm 0.00 in0.0 mm 0.13 in3.3 mm
07:35 AM 42.6°F5.9°C 42.4°F5.8°C 99% 10.1 mph NW16.3 kmh NW 14.5 mph23.3 kmh 29.62 in1003.0 mb 0.01 in0.3 mm 0.00 in0.0 mm 0.13 in3.3 mm
07:40 AM 42.4°F5.8°C 42.2°F5.7°C 99% 11.8 mph NW19.0 kmh NW 18.3 mph29.5 kmh 29.62 in1003.0 mb 0.01 in0.3 mm 0.00 in0.0 mm 0.13 in3.3 mm
07:45 AM 42.4°F5.8°C 42.2°F5.7°C 99% 13.0 mph NW20.9 kmh NW 18.3 mph29.5 kmh 29.62 in1003.0 mb 0.02 in0.5 mm 0.12 in3.0 mm 0.14 in3.6 mm
07:50 AM 42.4°F5.8°C 42.2°F5.7°C 99% 14.1 mph NW22.7 kmh NW 19.0 mph30.6 kmh 29.63 in1003.4 mb 0.02 in0.5 mm 0.00 in0.0 mm 0.14 in3.6 mm
07:55 AM 42.4°F5.8°C 41.9°F5.5°C 98% 15.2 mph NW24.5 kmh NW 19.7 mph31.7 kmh 29.64 in1003.7 mb 0.04 in1.0 mm 0.24 in6.1 mm 0.15 in3.8 mm
08:00 AM 42.4°F5.8°C 41.9°F5.5°C 98% 13.7 mph NW22.0 kmh NW 19.7 mph31.7 kmh 29.64 in1003.7 mb 0.02 in0.5 mm 0.00 in0.0 mm 0.15 in3.8 mm
08:05 AM 42.4°F5.8°C 42.2°F5.7°C 99% 11.4 mph NW18.3 kmh NW 14.5 mph23.3 kmh 29.64 in1003.7 mb 0.02 in0.5 mm 0.00 in0.0 mm 0.15 in3.8 mm
08:10 AM 42.4°F5.8°C 42.2°F5.7°C 99% 10.5 mph WNW16.9 kmh WNW 14.5 mph23.3 kmh 29.64 in1003.7 mb 0.02 in0.5 mm 0.00 in0.0 mm 0.15 in3.8 mm
08:15 AM 42.4°F5.8°C 41.9°F5.5°C 98% 11.2 mph NW18.0 kmh NW 17.4 mph28.0 kmh 29.64 in1003.7 mb 0.02 in0.5 mm 0.00 in0.0 mm 0.15 in3.8 mm
08:20 AM 42.4°F5.8°C 41.9°F5.5°C 98% 13.1 mph NW21.1 kmh NW 17.4 mph28.0 kmh 29.64 in1003.7 mb 0.02 in0.5 mm 0.00 in0.0 mm 0.15 in3.8 mm
08:25 AM 42.4°F5.8°C 41.7°F5.4°C 97% 12.6 mph WNW20.3 kmh WNW 15.9 mph25.6 kmh 29.64 in1003.7 mb 0.02 in0.5 mm 0.00 in0.0 mm 0.15 in3.8 mm
08:30 AM 42.6°F5.9°C 41.8°F5.4°C 97% 13.0 mph NW20.9 kmh NW 17.4 mph28.0 kmh 29.65 in1004.1 mb 0.02 in0.5 mm 0.00 in0.0 mm 0.15 in3.8 mm
08:35 AM 43.0°F6.1°C 41.9°F5.5°C 96% 14.8 mph NW23.8 kmh NW 19.7 mph31.7 kmh 29.65 in1004.1 mb 0.02 in0.5 mm 0.00 in0.0 mm 0.15 in3.8 mm
08:40 AM 42.8°F6.0°C 41.5°F5.3°C 95% 15.2 mph NW24.5 kmh NW 20.6 mph33.2 kmh 29.65 in1004.1 mb 0.02 in0.5 mm 0.00 in0.0 mm 0.15 in3.8 mm
08:45 AM 42.6°F5.9°C 41.0°F5.0°C 94% 13.5 mph WNW21.7 kmh WNW 20.6 mph33.2 kmh 29.65 in1004.1 mb 0.01 in0.3 mm 0.00 in0.0 mm 0.15 in3.8 mm
08:50 AM 42.6°F5.9°C 41.0°F5.0°C 94% 12.8 mph NW20.6 kmh NW 17.4 mph28.0 kmh 29.65 in1004.1 mb 0.01 in0.3 mm 0.00 in0.0 mm 0.15 in3.8 mm
08:55 AM 42.6°F5.9°C 40.2°F4.6°C 91% 15.6 mph WNW25.1 kmh WNW 20.6 mph33.2 kmh 29.66 in1004.4 mb 0.00 in0.0 mm 0.00 in0.0 mm 0.15 in3.8 mm
09:00 AM 42.3°F5.7°C 39.8°F4.3°C 91% 17.7 mph WNW28.5 kmh WNW 22.1 mph35.6 kmh 29.66 in1004.4 mb 0.00 in0.0 mm 0.00 in0.0 mm 0.15 in3.8 mm
09:05 AM 42.1°F5.6°C 39.9°F4.4°C 92% 16.0 mph WNW25.7 kmh WNW 22.1 mph35.6 kmh 29.66 in1004.4 mb 0.00 in0.0 mm 0.00 in0.0 mm 0.15 in3.8 mm
09:10 AM 42.1°F5.6°C 39.9°F4.4°C 92% 13.3 mph W21.4 kmh W 18.3 mph29.5 kmh 29.67 in1004.7 mb 0.00 in0.0 mm 0.00 in0.0 mm 0.15 in3.8 mm
09:15 AM 42.4°F5.8°C 40.0°F4.4°C 91% 11.8 mph WNW19.0 kmh WNW 18.3 mph29.5 kmh 29.67 in1004.7 mb 0.00 in0.0 mm 0.00 in0.0 mm 0.15 in3.8 mm
09:20 AM 43.3°F6.3°C 40.6°F4.8°C 90% 12.6 mph W20.3 kmh W 18.3 mph29.5 kmh 29.67 in1004.7 mb 0.00 in0.0 mm 0.00 in0.0 mm 0.15 in3.8 mm
09:25 AM 43.2°F6.2°C 40.1°F4.5°C 89% 15.8 mph W25.4 kmh W 20.6 mph33.2 kmh 29.68 in1005.1 mb 0.00 in0.0 mm 0.00 in0.0 mm 0.15 in3.8 mm
09:30 AM 42.8°F6.0°C 40.1°F4.5°C 90% 15.9 mph WNW25.6 kmh WNW 20.6 mph33.2 kmh 29.68 in1005.1 mb 0.00 in0.0 mm 0.00 in0.0 mm 0.15 in3.8 mm
09:35 AM 42.6°F5.9°C 40.2°F4.6°C 91% 14.0 mph WNW22.5 kmh WNW 19.7 mph31.7 kmh 29.68 in1005.1 mb 0.00 in0.0 mm 0.00 in0.0 mm 0.15 in3.8 mm
09:40 AM 42.4°F5.8°C 40.0°F4.4°C 91% 15.0 mph W24.1 kmh W 20.6 mph33.2 kmh 29.68 in1005.1 mb 0.00 in0.0 mm 0.00 in0.0 mm 0.15 in3.8 mm
09:45 AM 42.4°F5.8°C 40.0°F4.4°C 91% 15.9 mph W25.6 kmh W 20.6 mph33.2 kmh 29.68 in1005.1 mb 0.00 in0.0 mm 0.00 in0.0 mm 0.15 in3.8 mm
09:50 AM 42.6°F5.9°C 40.2°F4.6°C 91% 14.4 mph W23.2 kmh W 20.6 mph33.2 kmh 29.68 in1005.1 mb 0.00 in0.0 mm 0.00 in0.0 mm 0.15 in3.8 mm
09:55 AM 42.8°F6.0°C 40.4°F4.7°C 91% 12.0 mph WNW19.3 kmh WNW 17.4 mph28.0 kmh 29.69 in1005.4 mb 0.00 in0.0 mm 0.00 in0.0 mm 0.15 in3.8 mm
10:00 AM 43.2°F6.2°C 40.4°F4.7°C 90% 10.6 mph WNW17.1 kmh WNW 15.9 mph25.6 kmh 29.70 in1005.8 mb 0.00 in0.0 mm 0.00 in0.0 mm 0.15 in3.8 mm
10:05 AM 43.5°F6.4°C 40.8°F4.9°C 90% 11.5 mph WNW18.5 kmh WNW 15.2 mph24.5 kmh 29.69 in1005.4 mb 0.00 in0.0 mm 0.00 in0.0 mm 0.15 in3.8 mm
10:10 AM 43.7°F6.5°C 41.0°F5.0°C 90% 13.1 mph WNW21.1 kmh WNW 18.3 mph29.5 kmh 29.70 in1005.8 mb 0.00 in0.0 mm 0.00 in0.0 mm 0.15 in3.8 mm
10:15 AM 44.1°F6.7°C 41.6°F5.3°C 91% 9.6 mph W15.4 kmh W 18.3 mph29.5 kmh 29.70 in1005.8 mb 0.00 in0.0 mm 0.00 in0.0 mm 0.15 in3.8 mm
10:20 AM 44.4°F6.9°C 42.0°F5.6°C 91% 5.7 mph W9.2 kmh W 13.0 mph20.9 kmh 29.70 in1005.8 mb 0.00 in0.0 mm 0.00 in0.0 mm 0.15 in3.8 mm
10:25 AM 44.4°F6.9°C 41.7°F5.4°C 90% 7.2 mph W11.6 kmh W 13.0 mph20.9 kmh 29.70 in1005.8 mb 0.00 in0.0 mm 0.00 in0.0 mm 0.15 in3.8 mm
10:30 AM 44.6°F7.0°C 41.3°F5.2°C 88% 8.3 mph W13.4 kmh W 13.0 mph20.9 kmh 29.70 in1005.8 mb 0.00 in0.0 mm 0.00 in0.0 mm 0.15 in3.8 mm
10:35 AM 44.2°F6.8°C 40.9°F4.9°C 88% 9.0 mph W14.5 kmh W 13.0 mph20.9 kmh 29.70 in1005.8 mb 0.00 in0.0 mm 0.00 in0.0 mm 0.15 in3.8 mm
10:40 AM 44.2°F6.8°C 40.9°F4.9°C 88% 9.7 mph WNW15.6 kmh WNW 13.0 mph20.9 kmh 29.70 in1005.8 mb 0.00 in0.0 mm 0.00 in0.0 mm 0.15 in3.8 mm
10:45 AM 44.2°F6.8°C 40.9°F4.9°C 88% 8.7 mph NW14.0 kmh NW 13.6 mph21.9 kmh 29.70 in1005.8 mb 0.00 in0.0 mm 0.00 in0.0 mm 0.15 in3.8 mm
10:50 AM 44.2°F6.8°C 40.6°F4.8°C 87% 8.9 mph WNW14.3 kmh WNW 15.2 mph24.5 kmh 29.70 in1005.8 mb 0.00 in0.0 mm 0.00 in0.0 mm 0.15 in3.8 mm
10:55 AM 44.4°F6.9°C 40.8°F4.9°C 87% 11.6 mph W18.7 kmh W 15.2 mph24.5 kmh 29.70 in1005.8 mb 0.00 in0.0 mm 0.00 in0.0 mm 0.15 in3.8 mm
11:00 AM 44.2°F6.8°C 40.6°F4.8°C 87% 12.2 mph W19.6 kmh W 15.2 mph24.5 kmh 29.70 in1005.8 mb 0.00 in0.0 mm 0.00 in0.0 mm 0.15 in3.8 mm
11:05 AM 44.4°F6.9°C 40.8°F4.9°C 87% 10.5 mph W16.9 kmh W 13.6 mph21.9 kmh 29.70 in1005.8 mb 0.00 in0.0 mm 0.00 in0.0 mm 0.15 in3.8 mm
11:10 AM 44.1°F6.7°C 40.1°F4.5°C 86% 11.9 mph WNW19.2 kmh WNW 19.0 mph30.6 kmh 29.70 in1005.8 mb 0.00 in0.0 mm 0.00 in0.0 mm 0.15 in3.8 mm
11:15 AM 43.7°F6.5°C 40.4°F4.7°C 88% 13.6 mph NW21.9 kmh NW 19.7 mph31.7 kmh 29.70 in1005.8 mb 0.00 in0.0 mm 0.00 in0.0 mm 0.15 in3.8 mm
11:20 AM 44.8°F7.1°C 41.4°F5.2°C 88% 13.1 mph WNW21.1 kmh WNW 19.7 mph31.7 kmh 29.70 in1005.8 mb 0.00 in0.0 mm 0.00 in0.0 mm 0.15 in3.8 mm
11:25 AM 45.3°F7.4°C 41.4°F5.2°C 86% 11.8 mph WNW19.0 kmh WNW 15.9 mph25.6 kmh 29.70 in1005.8 mb 0.00 in0.0 mm 0.00 in0.0 mm 0.15 in3.8 mm
11:30 AM 45.0°F7.2°C 40.7°F4.8°C 85% 13.0 mph NW20.9 kmh NW 24.4 mph39.3 kmh 29.70 in1005.8 mb 0.00 in0.0 mm 0.00 in0.0 mm 0.15 in3.8 mm
11:35 AM 44.1°F6.7°C 40.1°F4.5°C 86% 15.6 mph NW25.1 kmh NW 24.4 mph39.3 kmh 29.70 in1005.8 mb 0.00 in0.0 mm 0.00 in0.0 mm 0.15 in3.8 mm
11:40 AM 43.7°F6.5°C 40.1°F4.5°C 87% 13.8 mph NW22.2 kmh NW 24.4 mph39.3 kmh 29.70 in1005.8 mb 0.00 in0.0 mm 0.00 in0.0 mm 0.15 in3.8 mm
11:45 AM 44.2°F6.8°C 40.6°F4.8°C 87% 11.7 mph NW18.8 kmh NW 14.5 mph23.3 kmh 29.70 in1005.8 mb 0.00 in0.0 mm 0.00 in0.0 mm 0.15 in3.8 mm
11:50 AM 44.2°F6.8°C 40.9°F4.9°C 88% 11.8 mph WNW19.0 kmh WNW 13.6 mph21.9 kmh 29.70 in1005.8 mb 0.00 in0.0 mm 0.00 in0.0 mm 0.15 in3.8 mm
11:55 AM 44.1°F6.7°C 40.7°F4.8°C 88% 10.4 mph WNW16.7 kmh WNW 13.0 mph20.9 kmh 29.70 in1005.8 mb 0.00 in0.0 mm 0.00 in0.0 mm 0.15 in3.8 mm
12:00 PM 43.5°F6.4°C 40.5°F4.7°C 89% 11.6 mph WNW18.7 kmh WNW 19.0 mph30.6 kmh 29.70 in1005.8 mb 0.00 in0.0 mm 0.00 in0.0 mm 0.15 in3.8 mm
12:05 PM 43.3°F6.3°C 40.3°F4.6°C 89% 12.5 mph WNW20.1 kmh WNW 19.0 mph30.6 kmh 29.70 in1005.8 mb 0.00 in0.0 mm 0.00 in0.0 mm 0.15 in3.8 mm
12:10 PM 43.7°F6.5°C 41.0°F5.0°C 90% 8.3 mph WNW13.4 kmh WNW 13.6 mph21.9 kmh 29.70 in1005.8 mb 0.00 in0.0 mm 0.00 in0.0 mm 0.15 in3.8 mm
12:15 PM 43.7°F6.5°C 41.0°F5.0°C 90% 8.4 mph WNW13.5 kmh WNW 14.5 mph23.3 kmh 29.70 in1005.8 mb 0.00 in0.0 mm 0.00 in0.0 mm 0.15 in3.8 mm
12:20 PM 43.5°F6.4°C 40.8°F4.9°C 90% 10.4 mph WNW16.7 kmh WNW 14.5 mph23.3 kmh 29.70 in1005.8 mb 0.00 in0.0 mm 0.00 in0.0 mm 0.15 in3.8 mm
12:25 PM 43.5°F6.4°C 40.5°F4.7°C 89% 11.0 mph WNW17.7 kmh WNW 16.8 mph27.0 kmh 29.70 in1005.8 mb 0.00 in0.0 mm 0.00 in0.0 mm 0.15 in3.8 mm
12:30 PM 43.9°F6.6°C 41.1°F5.1°C 90% 10.9 mph W17.5 kmh W 16.8 mph27.0 kmh 29.70 in1005.8 mb 0.00 in0.0 mm 0.00 in0.0 mm 0.15 in3.8 mm
12:35 PM 44.1°F6.7°C 41.0°F5.0°C 89% 9.4 mph W15.1 kmh W 13.6 mph21.9 kmh 29.70 in1005.8 mb 0.00 in0.0 mm 0.00 in0.0 mm 0.15 in3.8 mm
12:40 PM 43.7°F6.5°C 40.7°F4.8°C 89% 9.3 mph W15.0 kmh W 14.5 mph23.3 kmh 29.70 in1005.8 mb 0.00 in0.0 mm 0.00 in0.0 mm 0.15 in3.8 mm
12:45 PM 43.5°F6.4°C 40.2°F4.6°C 88% 9.9 mph W15.9 kmh W 14.5 mph23.3 kmh 29.70 in1005.8 mb 0.00 in0.0 mm 0.00 in0.0 mm 0.15 in3.8 mm
12:50 PM 43.7°F6.5°C 40.7°F4.8°C 89% 9.0 mph W14.5 kmh W 12.1 mph19.5 kmh 29.70 in1005.8 mb 0.00 in0.0 mm 0.00 in0.0 mm 0.15 in3.8 mm
12:55 PM 43.5°F6.4°C 40.5°F4.7°C 89% 9.6 mph W15.4 kmh W 13.0 mph20.9 kmh 29.70 in1005.8 mb 0.00 in0.0 mm 0.00 in0.0 mm 0.15 in3.8 mm
01:00 PM 43.5°F6.4°C 40.5°F4.7°C 89% 11.3 mph W18.2 kmh W 14.5 mph23.3 kmh 29.70 in1005.8 mb 0.00 in0.0 mm 0.00 in0.0 mm 0.15 in3.8 mm
01:05 PM 43.3°F6.3°C 40.0°F4.4°C 88% 13.0 mph W20.9 kmh W 16.8 mph27.0 kmh 29.70 in1005.8 mb 0.00 in0.0 mm 0.00 in0.0 mm 0.15 in3.8 mm
01:10 PM 43.9°F6.6°C 40.9°F4.9°C 89% 13.5 mph W21.7 kmh W 17.4 mph28.0 kmh 29.70 in1005.8 mb 0.00 in0.0 mm 0.00 in0.0 mm 0.15 in3.8 mm
01:15 PM 44.4°F6.9°C 41.4°F5.2°C 89% 10.2 mph WNW16.4 kmh WNW 17.4 mph28.0 kmh 29.70 in1005.8 mb 0.00 in0.0 mm 0.00 in0.0 mm 0.15 in3.8 mm
01:20 PM 44.6°F7.0°C 41.3°F5.2°C 88% 8.8 mph WNW14.2 kmh WNW 13.0 mph20.9 kmh 29.71 in1006.1 mb 0.00 in0.0 mm 0.00 in0.0 mm 0.15 in3.8 mm
01:25 PM 44.1°F6.7°C 40.7°F4.8°C 88% 9.4 mph W15.1 kmh W 15.2 mph24.5 kmh 29.71 in1006.1 mb 0.00 in0.0 mm 0.00 in0.0 mm 0.15 in3.8 mm
01:30 PM 43.7°F6.5°C 40.7°F4.8°C 89% 8.3 mph WSW13.4 kmh WSW 15.2 mph24.5 kmh 29.71 in1006.1 mb 0.00 in0.0 mm 0.00 in0.0 mm 0.15 in3.8 mm
01:35 PM 43.3°F6.3°C 40.6°F4.8°C 90% 7.0 mph WSW11.3 kmh WSW 15.2 mph24.5 kmh 29.71 in1006.1 mb 0.01 in0.3 mm 0.12 in3.0 mm 0.17 in4.3 mm
01:40 PM 43.0°F6.1°C 40.3°F4.6°C 90% 7.1 mph W11.4 kmh W 13.0 mph20.9 kmh 29.71 in1006.1 mb 0.01 in0.3 mm 0.00 in0.0 mm 0.17 in4.3 mm
01:45 PM 43.3°F6.3°C 40.9°F4.9°C 91% 6.6 mph W10.6 kmh W 13.0 mph20.9 kmh 29.71 in1006.1 mb 0.01 in0.3 mm 0.00 in0.0 mm 0.17 in4.3 mm
01:50 PM 43.5°F6.4°C 40.8°F4.9°C 90% 7.9 mph WNW12.7 kmh WNW 15.2 mph24.5 kmh 29.71 in1006.1 mb 0.01 in0.3 mm 0.00 in0.0 mm 0.17 in4.3 mm
01:55 PM 43.3°F6.3°C 40.6°F4.8°C 90% 9.9 mph WNW15.9 kmh WNW 15.2 mph24.5 kmh 29.71 in1006.1 mb 0.01 in0.3 mm 0.00 in0.0 mm 0.17 in4.3 mm
02:00 PM 43.3°F6.3°C 40.6°F4.8°C 90% 9.7 mph W15.6 kmh W 13.6 mph21.9 kmh 29.72 in1006.4 mb 0.01 in0.3 mm 0.00 in0.0 mm 0.17 in4.3 mm
02:05 PM 43.5°F6.4°C 40.8°F4.9°C 90% 9.5 mph W15.3 kmh W 14.5 mph23.3 kmh 29.72 in1006.4 mb 0.02 in0.5 mm 0.12 in3.0 mm 0.18 in4.6 mm
02:10 PM 44.4°F6.9°C 41.7°F5.4°C 90% 9.2 mph W14.8 kmh W 15.9 mph25.6 kmh 29.72 in1006.4 mb 0.02 in0.5 mm 0.00 in0.0 mm 0.18 in4.6 mm
02:15 PM 45.0°F7.2°C 41.6°F5.3°C 88% 9.8 mph W15.8 kmh W 15.9 mph25.6 kmh 29.72 in1006.4 mb 0.02 in0.5 mm 0.00 in0.0 mm 0.18 in4.6 mm
02:20 PM 44.2°F6.8°C 40.3°F4.6°C 86% 10.9 mph W17.5 kmh W 15.9 mph25.6 kmh 29.73 in1006.8 mb 0.02 in0.5 mm 0.00 in0.0 mm 0.18 in4.6 mm
02:25 PM 43.5°F6.4°C 39.9°F4.4°C 87% 10.8 mph W17.4 kmh W 15.9 mph25.6 kmh 29.73 in1006.8 mb 0.02 in0.5 mm 0.00 in0.0 mm 0.18 in4.6 mm
02:30 PM 43.7°F6.5°C 40.1°F4.5°C 87% 10.9 mph W17.5 kmh W 14.5 mph23.3 kmh 29.73 in1006.8 mb 0.02 in0.5 mm 0.00 in0.0 mm 0.18 in4.6 mm
02:35 PM 44.4°F6.9°C 40.8°F4.9°C 87% 10.7 mph W17.2 kmh W 14.5 mph23.3 kmh 29.73 in1006.8 mb 0.01 in0.3 mm 0.00 in0.0 mm 0.18 in4.6 mm
02:40 PM 44.8°F7.1°C 40.9°F4.9°C 86% 10.4 mph W16.7 kmh W 13.0 mph20.9 kmh 29.74 in1007.1 mb 0.01 in0.3 mm 0.00 in0.0 mm 0.18 in4.6 mm
02:45 PM 44.4°F6.9°C 40.5°F4.7°C 86% 10.0 mph W16.1 kmh W 13.0 mph20.9 kmh 29.73 in1006.8 mb 0.01 in0.3 mm 0.00 in0.0 mm 0.18 in4.6 mm
02:50 PM 44.4°F6.9°C 40.5°F4.7°C 86% 9.2 mph W14.8 kmh W 13.6 mph21.9 kmh 29.73 in1006.8 mb 0.01 in0.3 mm 0.00 in0.0 mm 0.18 in4.6 mm
02:55 PM 45.5°F7.5°C 41.3°F5.2°C 85% 9.4 mph W15.1 kmh W 13.6 mph21.9 kmh 29.73 in1006.8 mb 0.01 in0.3 mm 0.00 in0.0 mm 0.18 in4.6 mm
03:00 PM 45.9°F7.7°C 41.3°F5.2°C 84% 8.7 mph WNW14.0 kmh WNW 13.6 mph21.9 kmh 29.74 in1007.1 mb 0.01 in0.3 mm 0.00 in0.0 mm 0.18 in4.6 mm
03:05 PM 45.1°F7.3°C 40.6°F4.8°C 84% 8.6 mph W13.8 kmh W 15.2 mph24.5 kmh 29.74 in1007.1 mb 0.00 in0.0 mm 0.00 in0.0 mm 0.18 in4.6 mm
03:10 PM 44.8°F7.1°C 40.6°F4.8°C 85% 9.9 mph W15.9 kmh W 15.2 mph24.5 kmh 29.75 in1007.5 mb 0.00 in0.0 mm 0.00 in0.0 mm 0.18 in4.6 mm
03:15 PM 45.3°F7.4°C 42.0°F5.6°C 88% 8.3 mph W13.4 kmh W 13.0 mph20.9 kmh 29.75 in1007.5 mb 0.00 in0.0 mm 0.00 in0.0 mm 0.18 in4.6 mm
03:20 PM 45.1°F7.3°C 41.5°F5.3°C 87% 6.4 mph W10.3 kmh W 13.6 mph21.9 kmh 29.75 in1007.5 mb 0.00 in0.0 mm 0.00 in0.0 mm 0.18 in4.6 mm
03:25 PM 44.2°F6.8°C 40.6°F4.8°C 87% 6.4 mph WNW10.3 kmh WNW 13.6 mph21.9 kmh 29.76 in1007.8 mb 0.02 in0.5 mm 0.24 in6.1 mm 0.20 in5.1 mm
03:30 PM 43.3°F6.3°C 40.0°F4.4°C 88% 5.5 mph WNW8.9 kmh WNW 10.7 mph17.2 kmh 29.76 in1007.8 mb 0.02 in0.5 mm 0.00 in0.0 mm 0.20 in5.1 mm
03:35 PM 43.5°F6.4°C 40.5°F4.7°C 89% 4.2 mph W6.8 kmh W 8.3 mph13.4 kmh 29.76 in1007.8 mb 0.02 in0.5 mm 0.00 in0.0 mm 0.20 in5.1 mm
03:40 PM 44.2°F6.8°C 41.2°F5.1°C 89% 3.4 mph WSW5.5 kmh WSW 5.4 mph8.7 kmh 29.76 in1007.8 mb 0.02 in0.5 mm 0.00 in0.0 mm 0.20 in5.1 mm
03:45 PM 44.8°F7.1°C 41.7°F5.4°C 89% 4.0 mph W6.4 kmh W 11.4 mph18.3 kmh 29.77 in1008.1 mb 0.02 in0.5 mm 0.00 in0.0 mm 0.20 in5.1 mm
03:50 PM 45.7°F7.6°C 42.3°F5.7°C 88% 8.0 mph W12.9 kmh W 17.4 mph28.0 kmh 29.77 in1008.1 mb 0.02 in0.5 mm 0.00 in0.0 mm 0.20 in5.1 mm
03:55 PM 45.7°F7.6°C 41.7°F5.4°C 86% 11.5 mph W18.5 kmh W 17.4 mph28.0 kmh 29.78 in1008.5 mb 0.02 in0.5 mm 0.00 in0.0 mm 0.20 in5.1 mm
04:00 PM 45.3°F7.4°C 40.8°F4.9°C 84% 11.0 mph W17.7 kmh W 17.4 mph28.0 kmh 29.78 in1008.5 mb 0.02 in0.5 mm 0.00 in0.0 mm 0.20 in5.1 mm
04:05 PM 45.0°F7.2°C 40.7°F4.8°C 85% 9.0 mph W14.5 kmh W 16.8 mph27.0 kmh 29.79 in1008.8 mb 0.02 in0.5 mm 0.00 in0.0 mm 0.20 in5.1 mm
04:10 PM 44.8°F7.1°C 40.6°F4.8°C 85% 6.9 mph WSW11.1 kmh WSW 13.0 mph20.9 kmh 29.79 in1008.8 mb 0.02 in0.5 mm 0.00 in0.0 mm 0.20 in5.1 mm
04:15 PM 44.6°F7.0°C 40.7°F4.8°C 86% 5.6 mph WSW9.0 kmh WSW 9.8 mph15.8 kmh 29.79 in1008.8 mb 0.04 in1.0 mm 0.24 in6.1 mm 0.21 in5.3 mm
04:20 PM 44.4°F6.9°C 40.5°F4.7°C 86% 6.1 mph WSW9.8 kmh WSW 11.4 mph18.3 kmh 29.80 in1009.1 mb 0.04 in1.0 mm 0.00 in0.0 mm 0.21 in5.3 mm
04:25 PM 43.9°F6.6°C 40.3°F4.6°C 87% 7.4 mph W11.9 kmh W 12.1 mph19.5 kmh 29.79 in1008.8 mb 0.01 in0.3 mm 0.00 in0.0 mm 0.21 in5.3 mm
04:30 PM 43.7°F6.5°C 40.1°F4.5°C 87% 7.2 mph W11.6 kmh W 12.1 mph19.5 kmh 29.80 in1009.1 mb 0.01 in0.3 mm 0.00 in0.0 mm 0.21 in5.3 mm
04:35 PM 43.3°F6.3°C 39.7°F4.3°C 87% 7.2 mph WSW11.6 kmh WSW 11.4 mph18.3 kmh 29.80 in1009.1 mb 0.01 in0.3 mm 0.00 in0.0 mm 0.21 in5.3 mm
04:40 PM 43.2°F6.2°C 39.6°F4.2°C 87% 7.5 mph W12.1 kmh W 12.1 mph19.5 kmh 29.80 in1009.1 mb 0.01 in0.3 mm 0.00 in0.0 mm 0.21 in5.3 mm
04:45 PM 43.0°F6.1°C 39.1°F3.9°C 86% 8.9 mph W14.3 kmh W 14.5 mph23.3 kmh 29.80 in1009.1 mb 0.01 in0.3 mm 0.00 in0.0 mm 0.21 in5.3 mm
04:50 PM 42.8°F6.0°C 38.9°F3.8°C 86% 9.4 mph WSW15.1 kmh WSW 14.5 mph23.3 kmh 29.81 in1009.5 mb 0.01 in0.3 mm 0.00 in0.0 mm 0.21 in5.3 mm
04:55 PM 42.8°F6.0°C 39.2°F4.0°C 87% 8.8 mph WSW14.2 kmh WSW 13.0 mph20.9 kmh 29.81 in1009.5 mb 0.01 in0.3 mm 0.00 in0.0 mm 0.21 in5.3 mm
05:00 PM 42.8°F6.0°C 38.9°F3.8°C 86% 10.6 mph W17.1 kmh W 20.6 mph33.2 kmh 29.82 in1009.8 mb 0.02 in0.5 mm 0.01 in0.3 mm 0.22 in5.6 mm
05:05 PM 42.6°F5.9°C 39.0°F3.9°C 87% 12.2 mph WNW19.6 kmh WNW 20.6 mph33.2 kmh 29.82 in1009.8 mb 0.02 in0.5 mm 0.00 in0.0 mm 0.22 in5.6 mm
05:10 PM 42.3°F5.7°C 38.7°F3.7°C 87% 12.0 mph WNW19.3 kmh WNW 17.4 mph28.0 kmh 29.83 in1010.2 mb 0.02 in0.5 mm 0.00 in0.0 mm 0.22 in5.6 mm
05:15 PM 41.9°F5.5°C 38.3°F3.5°C 87% 10.5 mph WNW16.9 kmh WNW 15.9 mph25.6 kmh 29.84 in1010.5 mb 0.01 in0.3 mm 0.00 in0.0 mm 0.22 in5.6 mm
05:20 PM 41.5°F5.3°C 38.3°F3.5°C 88% 9.1 mph W14.6 kmh W 15.2 mph24.5 kmh 29.83 in1010.2 mb 0.01 in0.3 mm 0.00 in0.0 mm 0.22 in5.6 mm
05:25 PM 41.4°F5.2°C 38.1°F3.4°C 88% 8.1 mph S13.0 kmh S 15.2 mph24.5 kmh 29.83 in1010.2 mb 0.01 in0.3 mm 0.00 in0.0 mm 0.22 in5.6 mm
05:30 PM 41.2°F5.1°C 37.9°F3.3°C 88% 7.6 mph WSW12.2 kmh WSW 13.0 mph20.9 kmh 29.84 in1010.5 mb 0.01 in0.3 mm 0.00 in0.0 mm 0.22 in5.6 mm
05:35 PM 41.2°F5.1°C 37.9°F3.3°C 88% 7.8 mph W12.6 kmh W 12.1 mph19.5 kmh 29.84 in1010.5 mb 0.01 in0.3 mm 0.00 in0.0 mm 0.22 in5.6 mm
05:40 PM 41.2°F5.1°C 37.9°F3.3°C 88% 6.1 mph WNW9.8 kmh WNW 12.1 mph19.5 kmh 29.84 in1010.5 mb 0.01 in0.3 mm 0.00 in0.0 mm 0.22 in5.6 mm
05:45 PM 41.0°F5.0°C 37.7°F3.2°C 88% 4.7 mph W7.6 kmh W 7.6 mph12.2 kmh 29.84 in1010.5 mb 0.01 in0.3 mm 0.00 in0.0 mm 0.22 in5.6 mm
05:50 PM 40.8°F4.9°C 37.5°F3.1°C 88% 6.3 mph W10.1 kmh W 10.7 mph17.2 kmh 29.84 in1010.5 mb 0.01 in0.3 mm 0.00 in0.0 mm 0.22 in5.6 mm
05:55 PM 40.8°F4.9°C 37.5°F3.1°C 88% 7.5 mph W12.1 kmh W 10.7 mph17.2 kmh 29.85 in1010.8 mb 0.01 in0.3 mm 0.00 in0.0 mm 0.22 in5.6 mm
06:00 PM 40.6°F4.8°C 37.4°F3.0°C 88% 6.7 mph W10.8 kmh W 10.7 mph17.2 kmh 29.86 in1011.2 mb 0.00 in0.0 mm 0.00 in0.0 mm 0.22 in5.6 mm
06:05 PM 40.8°F4.9°C 37.5°F3.1°C 88% 4.1 mph W6.6 kmh W 9.8 mph15.8 kmh 29.87 in1011.5 mb 0.00 in0.0 mm 0.00 in0.0 mm 0.22 in5.6 mm
06:10 PM 40.6°F4.8°C 37.4°F3.0°C 88% 2.0 mph SW3.2 kmh SW 5.4 mph8.7 kmh 29.88 in1011.9 mb 0.00 in0.0 mm 0.00 in0.0 mm 0.22 in5.6 mm
06:15 PM 40.6°F4.8°C 37.4°F3.0°C 88% 2.2 mph SSW3.5 kmh SSW 5.4 mph8.7 kmh 29.88 in1011.9 mb 0.00 in0.0 mm 0.00 in0.0 mm 0.22 in5.6 mm
06:20 PM 40.6°F4.8°C 37.4°F3.0°C 88% 2.7 mph WSW4.3 kmh WSW 5.4 mph8.7 kmh 29.88 in1011.9 mb 0.00 in0.0 mm 0.00 in0.0 mm 0.22 in5.6 mm
06:25 PM 40.6°F4.8°C 37.4°F3.0°C 88% 2.8 mph WSW4.5 kmh WSW 5.4 mph8.7 kmh 29.88 in1011.9 mb 0.00 in0.0 mm 0.00 in0.0 mm 0.22 in5.6 mm
06:30 PM 40.6°F4.8°C 37.4°F3.0°C 88% 2.3 mph W3.7 kmh W 5.4 mph8.7 kmh 29.88 in1011.9 mb 0.00 in0.0 mm 0.00 in0.0 mm 0.22 in5.6 mm
06:35 PM 40.5°F4.7°C 37.2°F2.9°C 88% 2.5 mph NW4.0 kmh NW 5.4 mph8.7 kmh 29.89 in1012.2 mb 0.00 in0.0 mm 0.00 in0.0 mm 0.22 in5.6 mm
06:40 PM 40.5°F4.7°C 37.2°F2.9°C 88% 2.7 mph WNW4.3 kmh WNW 5.4 mph8.7 kmh 29.89 in1012.2 mb 0.00 in0.0 mm 0.00 in0.0 mm 0.22 in5.6 mm
06:45 PM 40.3°F4.6°C 37.0°F2.8°C 88% 2.1 mph SW3.4 kmh SW 3.8 mph6.1 kmh 29.90 in1012.5 mb 0.00 in0.0 mm 0.00 in0.0 mm 0.22 in5.6 mm
06:50 PM 40.1°F4.5°C 36.8°F2.7°C 88% 1.6 mph SW2.6 kmh SW 3.8 mph6.1 kmh 29.91 in1012.9 mb 0.00 in0.0 mm 0.00 in0.0 mm 0.22 in5.6 mm
06:55 PM 40.1°F4.5°C 36.8°F2.7°C 88% 1.1 mph NE1.8 kmh NE 2.2 mph3.5 kmh 29.91 in1012.9 mb 0.00 in0.0 mm 0.00 in0.0 mm 0.22 in5.6 mm
07:00 PM 39.9°F4.4°C 36.9°F2.7°C 89% 1.5 mph NNW2.4 kmh NNW 2.2 mph3.5 kmh 29.91 in1012.9 mb 0.00 in0.0 mm 0.00 in0.0 mm 0.22 in5.6 mm
07:05 PM 39.9°F4.4°C 36.9°F2.7°C 89% 1.8 mph NW2.9 kmh NW 3.1 mph5.0 kmh 29.92 in1013.2 mb 0.00 in0.0 mm 0.00 in0.0 mm 0.22 in5.6 mm
07:10 PM 39.7°F4.3°C 36.8°F2.7°C 89% 1.9 mph WNW3.1 kmh WNW 3.1 mph5.0 kmh 29.92 in1013.2 mb 0.00 in0.0 mm 0.00 in0.0 mm 0.22 in5.6 mm
07:15 PM 39.7°F4.3°C 36.8°F2.7°C 89% 2.0 mph NW3.2 kmh NW 3.1 mph5.0 kmh 29.91 in1012.9 mb 0.00 in0.0 mm 0.00 in0.0 mm 0.22 in5.6 mm
07:20 PM 39.6°F4.2°C 36.6°F2.6°C 89% 1.8 mph W2.9 kmh W 2.2 mph3.5 kmh 29.93 in1013.5 mb 0.00 in0.0 mm 0.00 in0.0 mm 0.22 in5.6 mm
07:25 PM 39.4°F4.1°C 36.4°F2.4°C 89% 1.6 mph W2.6 kmh W 2.2 mph3.5 kmh 29.92 in1013.2 mb 0.00 in0.0 mm 0.00 in0.0 mm 0.22 in5.6 mm
07:30 PM 39.4°F4.1°C 36.4°F2.4°C 89% 1.7 mph NW2.7 kmh NW 3.1 mph5.0 kmh 29.92 in1013.2 mb 0.00 in0.0 mm 0.00 in0.0 mm 0.22 in5.6 mm
07:35 PM 39.4°F4.1°C 36.4°F2.4°C 89% 2.3 mph NW3.7 kmh NW 3.8 mph6.1 kmh 29.93 in1013.5 mb 0.00 in0.0 mm 0.00 in0.0 mm 0.22 in5.6 mm
07:40 PM 39.4°F4.1°C 36.4°F2.4°C 89% 2.5 mph WNW4.0 kmh WNW 3.8 mph6.1 kmh 29.93 in1013.5 mb 0.00 in0.0 mm 0.00 in0.0 mm 0.22 in5.6 mm
07:45 PM 39.2°F4.0°C 36.2°F2.3°C 89% 2.7 mph NW4.3 kmh NW 5.4 mph8.7 kmh 29.93 in1013.5 mb 0.00 in0.0 mm 0.00 in0.0 mm 0.22 in5.6 mm
07:50 PM 39.2°F4.0°C 36.2°F2.3°C 89% 3.1 mph NW5.0 kmh NW 5.4 mph8.7 kmh 29.94 in1013.9 mb 0.00 in0.0 mm 0.00 in0.0 mm 0.22 in5.6 mm
07:55 PM 39.2°F4.0°C 36.2°F2.3°C 89% 3.4 mph NW5.5 kmh NW 7.6 mph12.2 kmh 29.94 in1013.9 mb 0.00 in0.0 mm 0.00 in0.0 mm 0.22 in5.6 mm
08:00 PM 39.2°F4.0°C 36.2°F2.3°C 89% 3.2 mph N5.1 kmh N 7.6 mph12.2 kmh 29.94 in1013.9 mb 0.00 in0.0 mm 0.00 in0.0 mm 0.22 in5.6 mm
08:05 PM 39.0°F3.9°C 36.3°F2.4°C 90% 1.9 mph ENE3.1 kmh ENE 3.1 mph5.0 kmh 29.95 in1014.2 mb 0.00 in0.0 mm 0.00 in0.0 mm 0.22 in5.6 mm
08:10 PM 39.0°F3.9°C 36.3°F2.4°C 90% 1.2 mph NE1.9 kmh NE 2.2 mph3.5 kmh 29.95 in1014.2 mb 0.00 in0.0 mm 0.00 in0.0 mm 0.22 in5.6 mm
08:15 PM 38.7°F3.7°C 36.0°F2.2°C 90% 1.2 mph NE1.9 kmh NE 2.2 mph3.5 kmh 29.95 in1014.2 mb 0.00 in0.0 mm 0.00 in0.0 mm 0.22 in5.6 mm
08:20 PM 38.5°F3.6°C 36.1°F2.3°C 91% 0.9 mph NNE1.4 kmh NNE 1.6 mph2.6 kmh 29.96 in1014.6 mb 0.00 in0.0 mm 0.00 in0.0 mm 0.22 in5.6 mm
08:25 PM 38.3°F3.5°C 35.9°F2.2°C 91% 1.1 mph NW1.8 kmh NW 2.2 mph3.5 kmh 29.96 in1014.6 mb 0.00 in0.0 mm 0.00 in0.0 mm 0.22 in5.6 mm
08:30 PM 38.1°F3.4°C 35.7°F2.1°C 91% 2.8 mph NNW4.5 kmh NNW 5.4 mph8.7 kmh 29.96 in1014.6 mb 0.00 in0.0 mm 0.00 in0.0 mm 0.22 in5.6 mm
08:35 PM 38.3°F3.5°C 35.9°F2.2°C 91% 3.0 mph NNW4.8 kmh NNW 5.4 mph8.7 kmh 29.96 in1014.6 mb 0.00 in0.0 mm 0.00 in0.0 mm 0.22 in5.6 mm
08:40 PM 38.1°F3.4°C 35.7°F2.1°C 91% 2.0 mph N3.2 kmh N 3.1 mph5.0 kmh 29.97 in1014.9 mb 0.00 in0.0 mm 0.00 in0.0 mm 0.22 in5.6 mm
08:45 PM 37.9°F3.3°C 35.8°F2.1°C 92% 2.0 mph N3.2 kmh N 3.1 mph5.0 kmh 29.97 in1014.9 mb 0.00 in0.0 mm 0.00 in0.0 mm 0.22 in5.6 mm
08:50 PM 37.9°F3.3°C 35.8°F2.1°C 92% 1.9 mph N3.1 kmh N 3.1 mph5.0 kmh 29.97 in1014.9 mb 0.00 in0.0 mm 0.00 in0.0 mm 0.22 in5.6 mm
08:55 PM 37.8°F3.2°C 35.7°F2.1°C 92% 1.7 mph NNE2.7 kmh NNE 3.8 mph6.1 kmh 29.97 in1014.9 mb 0.00 in0.0 mm 0.00 in0.0 mm 0.22 in5.6 mm
09:00 PM 37.6°F3.1°C 35.5°F1.9°C 92% 1.8 mph NNE2.9 kmh NNE 3.8 mph6.1 kmh 29.97 in1014.9 mb 0.00 in0.0 mm 0.00 in0.0 mm 0.22 in5.6 mm
09:05 PM 37.6°F3.1°C 35.5°F1.9°C 92% 2.3 mph N3.7 kmh N 5.4 mph8.7 kmh 29.97 in1014.9 mb 0.00 in0.0 mm 0.00 in0.0 mm 0.22 in5.6 mm
09:10 PM 37.6°F3.1°C 35.7°F2.1°C 93% 2.7 mph N4.3 kmh N 5.4 mph8.7 kmh 29.97 in1014.9 mb 0.00 in0.0 mm 0.00 in0.0 mm 0.22 in5.6 mm
09:15 PM 37.4°F3.0°C 35.6°F2.0°C 93% 3.5 mph N5.6 kmh N 6.9 mph11.1 kmh 29.97 in1014.9 mb 0.00 in0.0 mm 0.00 in0.0 mm 0.22 in5.6 mm
09:20 PM 37.4°F3.0°C 35.6°F2.0°C 93% 3.2 mph N5.1 kmh N 6.9 mph11.1 kmh 29.98 in1015.2 mb 0.00 in0.0 mm 0.00 in0.0 mm 0.22 in5.6 mm
09:25 PM 37.4°F3.0°C 35.6°F2.0°C 93% 2.5 mph N4.0 kmh N 4.5 mph7.2 kmh 29.98 in1015.2 mb 0.00 in0.0 mm 0.00 in0.0 mm 0.22 in5.6 mm
09:30 PM 37.4°F3.0°C 35.6°F2.0°C 93% 3.3 mph N5.3 kmh N 4.5 mph7.2 kmh 29.98 in1015.2 mb 0.00 in0.0 mm 0.00 in0.0 mm 0.22 in5.6 mm
09:35 PM 37.6°F3.1°C 35.7°F2.1°C 93% 2.3 mph N3.7 kmh N 4.5 mph7.2 kmh 29.98 in1015.2 mb 0.00 in0.0 mm 0.00 in0.0 mm 0.22 in5.6 mm
09:40 PM 37.4°F3.0°C 35.6°F2.0°C 93% 2.0 mph NNE3.2 kmh NNE 4.5 mph7.2 kmh 30.00 in1015.9 mb 0.00 in0.0 mm 0.00 in0.0 mm 0.22 in5.6 mm
09:45 PM 37.4°F3.0°C 35.6°F2.0°C 93% 3.1 mph NNE5.0 kmh NNE 5.4 mph8.7 kmh 29.99 in1015.6 mb 0.00 in0.0 mm 0.00 in0.0 mm 0.22 in5.6 mm
09:50 PM 37.4°F3.0°C 35.6°F2.0°C 93% 3.0 mph N4.8 kmh N 5.4 mph8.7 kmh 29.99 in1015.6 mb 0.00 in0.0 mm 0.00 in0.0 mm 0.22 in5.6 mm
09:55 PM 37.2°F2.9°C 35.4°F1.9°C 93% 2.6 mph N4.2 kmh N 5.4 mph8.7 kmh 29.99 in1015.6 mb 0.00 in0.0 mm 0.00 in0.0 mm 0.22 in5.6 mm
10:00 PM 37.2°F2.9°C 35.7°F2.1°C 94% 3.1 mph N5.0 kmh N 5.4 mph8.7 kmh 30.00 in1015.9 mb 0.00 in0.0 mm 0.00 in0.0 mm 0.22 in5.6 mm
10:05 PM 37.2°F2.9°C 35.7°F2.1°C 94% 3.7 mph NNE6.0 kmh NNE 5.4 mph8.7 kmh 30.00 in1015.9 mb 0.00 in0.0 mm 0.00 in0.0 mm 0.22 in5.6 mm
10:10 PM 37.2°F2.9°C 35.7°F2.1°C 94% 3.6 mph N5.8 kmh N 4.5 mph7.2 kmh 30.01 in1016.3 mb 0.00 in0.0 mm 0.00 in0.0 mm 0.22 in5.6 mm
10:15 PM 37.2°F2.9°C 35.4°F1.9°C 93% 3.9 mph N6.3 kmh N 6.0 mph9.7 kmh 30.01 in1016.3 mb 0.00 in0.0 mm 0.00 in0.0 mm 0.22 in5.6 mm
10:20 PM 37.2°F2.9°C 35.4°F1.9°C 93% 4.9 mph N7.9 kmh N 6.9 mph11.1 kmh 30.01 in1016.3 mb 0.00 in0.0 mm 0.00 in0.0 mm 0.22 in5.6 mm
10:25 PM 37.2°F2.9°C 35.4°F1.9°C 93% 5.5 mph N8.9 kmh N 6.9 mph11.1 kmh 30.01 in1016.3 mb 0.00 in0.0 mm 0.00 in0.0 mm 0.22 in5.6 mm
10:30 PM 37.2°F2.9°C 35.4°F1.9°C 93% 4.2 mph N6.8 kmh N 6.0 mph9.7 kmh 30.01 in1016.3 mb 0.00 in0.0 mm 0.00 in0.0 mm 0.22 in5.6 mm
10:35 PM 37.2°F2.9°C 35.4°F1.9°C 93% 2.8 mph N4.5 kmh N 5.4 mph8.7 kmh 30.01 in1016.3 mb 0.00 in0.0 mm 0.00 in0.0 mm 0.22 in5.6 mm
10:40 PM 37.2°F2.9°C 35.4°F1.9°C 93% 1.7 mph WNW2.7 kmh WNW 3.8 mph6.1 kmh 30.02 in1016.6 mb 0.00 in0.0 mm 0.00 in0.0 mm 0.22 in5.6 mm
10:45 PM 37.0°F2.8°C 35.2°F1.8°C 93% 1.5 mph SSW2.4 kmh SSW 3.1 mph5.0 kmh 30.02 in1016.6 mb 0.00 in0.0 mm 0.00 in0.0 mm 0.22 in5.6 mm
10:50 PM 36.9°F2.7°C 35.0°F1.7°C 93% 1.6 mph SSW2.6 kmh SSW 3.1 mph5.0 kmh 30.02 in1016.6 mb 0.00 in0.0 mm 0.00 in0.0 mm 0.22 in5.6 mm
10:55 PM 36.9°F2.7°C 35.0°F1.7°C 93% 1.6 mph S2.6 kmh S 3.1 mph5.0 kmh 30.02 in1016.6 mb 0.00 in0.0 mm 0.00 in0.0 mm 0.22 in5.6 mm
11:00 PM 36.9°F2.7°C 35.0°F1.7°C 93% 1.9 mph SW3.1 kmh SW 3.1 mph5.0 kmh 30.02 in1016.6 mb 0.00 in0.0 mm 0.00 in0.0 mm 0.22 in5.6 mm
11:05 PM 36.7°F2.6°C 34.9°F1.6°C 93% 1.6 mph SW2.6 kmh SW 2.2 mph3.5 kmh 30.03 in1016.9 mb 0.00 in0.0 mm 0.00 in0.0 mm 0.22 in5.6 mm
11:10 PM 36.7°F2.6°C 34.9°F1.6°C 93% 1.0 mph S1.6 kmh S 1.6 mph2.6 kmh 30.03 in1016.9 mb 0.00 in0.0 mm 0.00 in0.0 mm 0.22 in5.6 mm
11:15 PM 36.7°F2.6°C 34.9°F1.6°C 93% 0.6 mph S1.0 kmh S 1.6 mph2.6 kmh 30.03 in1016.9 mb 0.00 in0.0 mm 0.00 in0.0 mm 0.22 in5.6 mm
11:20 PM 36.3°F2.4°C 34.5°F1.4°C 93% 1.2 mph WSW1.9 kmh WSW 2.2 mph3.5 kmh 30.03 in1016.9 mb 0.00 in0.0 mm 0.00 in0.0 mm 0.22 in5.6 mm
11:25 PM 36.0°F2.2°C 34.1°F1.2°C 93% 2.8 mph W4.5 kmh W 5.4 mph8.7 kmh 30.03 in1016.9 mb 0.00 in0.0 mm 0.00 in0.0 mm 0.22 in5.6 mm
11:30 PM 36.1°F2.3°C 34.3°F1.3°C 93% 3.9 mph W6.3 kmh W 5.4 mph8.7 kmh 30.04 in1017.3 mb 0.00 in0.0 mm 0.00 in0.0 mm 0.22 in5.6 mm
11:35 PM 36.3°F2.4°C 34.5°F1.4°C 93% 4.4 mph W7.1 kmh W 6.9 mph11.1 kmh 30.04 in1017.3 mb 0.00 in0.0 mm 0.00 in0.0 mm 0.22 in5.6 mm
11:40 PM 36.3°F2.4°C 34.5°F1.4°C 93% 4.7 mph W7.6 kmh W 6.9 mph11.1 kmh 30.04 in1017.3 mb 0.00 in0.0 mm 0.00 in0.0 mm 0.22 in5.6 mm
11:45 PM 36.3°F2.4°C 34.5°F1.4°C 93% 4.8 mph W7.7 kmh W 5.4 mph8.7 kmh 30.04 in1017.3 mb 0.00 in0.0 mm 0.00 in0.0 mm 0.22 in5.6 mm
11:50 PM 36.5°F2.5°C 34.4°F1.3°C 92% 5.1 mph WNW8.2 kmh WNW 6.0 mph9.7 kmh 30.04 in1017.3 mb 0.00 in0.0 mm 0.00 in0.0 mm 0.22 in5.6 mm
11:55 PM 36.5°F2.5°C 34.4°F1.3°C 92% 6.0 mph NW9.7 kmh NW 7.6 mph12.2 kmh 30.04 in1017.3 mb 0.00 in0.0 mm 0.00 in0.0 mm 0.22 in5.6 mm